createdAt,value
2018-03-30T00:04:36.858Z,73.60
2018-03-30T00:09:51.896Z,73.50
2018-03-30T00:14:54.504Z,74.50
2018-03-30T00:19:58.753Z,75.90
2018-03-30T00:25:01.325Z,75.90
2018-03-30T00:30:04.053Z,76.70
2018-03-30T00:35:06.739Z,77.70
2018-03-30T00:40:10.090Z,76.70
2018-03-30T00:45:12.686Z,76.60
2018-03-30T00:50:15.969Z,76.40
2018-03-30T00:55:20.063Z,75.30
2018-03-30T01:00:23.231Z,75.20
2018-03-30T01:05:26.356Z,75.30
2018-03-30T01:10:28.960Z,75.20
2018-03-30T01:15:32.183Z,74.90
2018-03-30T01:20:35.345Z,74.60
2018-03-30T01:25:38.977Z,74.00
2018-03-30T01:30:42.316Z,73.70
2018-03-30T01:35:45.640Z,73.60
2018-03-30T01:40:48.235Z,73.10
2018-03-30T01:45:51.103Z,75.90
2018-03-30T01:50:54.480Z,77.40
2018-03-30T01:55:57.102Z,77.30
2018-03-30T02:01:00.136Z,77.50
2018-03-30T02:06:03.486Z,78.80
2018-03-30T02:11:06.082Z,78.70
2018-03-30T02:16:09.585Z,78.10
2018-03-30T02:21:12.192Z,78.30
2018-03-30T02:26:14.774Z,78.40
2018-03-30T02:31:17.373Z,77.70
2018-03-30T02:36:19.965Z,78.00
2018-03-30T02:41:23.072Z,78.70
2018-03-30T02:46:26.418Z,77.40
2018-03-30T02:51:29.012Z,77.40
2018-03-30T02:56:31.598Z,77.30
2018-03-30T03:01:34.188Z,77.10
2018-03-30T03:06:36.788Z,76.30
2018-03-30T03:11:39.368Z,77.10
2018-03-30T03:16:42.718Z,76.90
2018-03-30T03:21:45.297Z,76.90
2018-03-30T03:26:47.891Z,77.00
2018-03-30T03:31:51.249Z,75.90
2018-03-30T03:36:53.834Z,75.90
2018-03-30T03:41:56.434Z,76.10
2018-03-30T03:46:59.229Z,76.20
2018-03-30T03:52:01.820Z,76.40
2018-03-30T03:57:05.188Z,76.60
2018-03-30T04:02:07.780Z,76.50
2018-03-30T04:07:10.352Z,77.00
2018-03-30T04:12:12.961Z,76.60
2018-03-30T04:17:15.572Z,77.20
2018-03-30T04:22:18.161Z,78.10
2018-03-30T04:27:30.697Z,82.20
2018-03-30T04:32:33.309Z,82.40
2018-03-30T04:37:35.876Z,83.20
2018-03-30T04:42:39.201Z,82.80
2018-03-30T04:47:42.461Z,80.90
2018-03-30T04:52:45.264Z,79.30
2018-03-30T04:57:48.706Z,78.80
2018-03-30T05:02:52.407Z,78.40
2018-03-30T05:07:55.058Z,78.20
2018-03-30T05:12:57.677Z,77.30
2018-03-30T05:18:00.289Z,76.50
2018-03-30T05:23:02.864Z,77.90
2018-03-30T05:28:06.028Z,77.50
2018-03-30T05:33:08.923Z,77.80
2018-03-30T05:38:12.967Z,77.20
2018-03-30T05:43:16.065Z,77.10
2018-03-30T05:48:18.691Z,77.10
2018-03-30T05:53:21.461Z,76.80
2018-03-30T05:58:24.085Z,76.90
2018-03-30T06:03:26.672Z,77.00
2018-03-30T06:08:29.306Z,77.30
2018-03-30T06:13:31.882Z,76.80
2018-03-30T06:18:34.915Z,76.90
2018-03-30T06:23:37.487Z,76.90
2018-03-30T06:28:40.085Z,76.00
2018-03-30T06:33:43.362Z,75.00
2018-03-30T06:38:45.968Z,75.50
2018-03-30T06:43:49.777Z,76.00
2018-03-30T06:48:52.372Z,76.00
2018-03-30T06:53:55.389Z,75.70
2018-03-30T06:58:58.554Z,76.40
2018-03-30T07:04:11.571Z,75.50
2018-03-30T07:09:14.481Z,74.30
2018-03-30T07:14:17.074Z,76.20
2018-03-30T07:19:20.418Z,76.50
2018-03-30T07:24:22.993Z,76.50
2018-03-30T07:29:26.461Z,77.50
2018-03-30T07:34:29.065Z,77.40
2018-03-30T07:39:31.661Z,75.70
2018-03-30T07:44:36.037Z,76.10
2018-03-30T07:49:39.920Z,75.60
2018-03-30T07:54:42.697Z,75.50
2018-03-30T07:59:46.010Z,74.60
2018-03-30T08:04:48.601Z,70.80
2018-03-30T08:09:51.203Z,72.40
2018-03-30T08:14:54.113Z,69.60
2018-03-30T08:19:57.576Z,67.70
2018-03-30T08:25:01.706Z,66.90
2018-03-30T08:30:04.643Z,66.90
2018-03-30T08:35:08.233Z,60.70
2018-03-30T08:40:11.271Z,60.60
2018-03-30T08:45:15.398Z,47.10
2018-03-30T08:50:19.539Z,41.40
2018-03-30T08:55:22.924Z,39.30
2018-03-30T09:00:25.469Z,39.20
2018-03-30T09:05:28.071Z,38.30
2018-03-30T09:10:31.408Z,39.10
2018-03-30T09:15:33.995Z,40.00
2018-03-30T09:20:36.565Z,41.20
2018-03-30T09:25:39.920Z,45.60
2018-03-30T09:30:42.505Z,45.50
2018-03-30T09:35:45.102Z,47.30
2018-03-30T09:40:47.684Z,48.50
2018-03-30T09:45:50.740Z,51.10
2018-03-30T09:50:53.601Z,51.30
2018-03-30T09:55:56.198Z,53.50
2018-03-30T10:01:01.730Z,55.00
2018-03-30T10:06:04.926Z,55.30
2018-03-30T10:11:07.506Z,54.80
2018-03-30T10:16:10.085Z,53.60
2018-03-30T10:21:12.972Z,53.60
2018-03-30T10:26:18.057Z,51.00
2018-03-30T10:31:21.233Z,50.90
2018-03-30T10:36:25.169Z,46.30
2018-03-30T10:41:28.548Z,45.90
2018-03-30T10:46:31.143Z,45.80
2018-03-30T10:51:33.736Z,44.80
2018-03-30T10:56:36.629Z,46.70
2018-03-30T11:01:45.054Z,45.90
2018-03-30T11:06:48.237Z,45.50
2018-03-30T11:11:51.587Z,44.80
2018-03-30T11:16:54.181Z,44.70
2018-03-30T11:21:56.772Z,44.90
2018-03-30T11:26:59.360Z,43.90
2018-03-30T11:32:01.954Z,43.80
2018-03-30T11:37:04.541Z,43.40
2018-03-30T11:42:08.202Z,43.50
2018-03-30T11:47:10.805Z,43.50
2018-03-30T11:52:13.983Z,43.20
2018-03-30T11:57:16.573Z,42.80
2018-03-30T12:02:20.536Z,41.40
2018-03-30T12:07:23.120Z,41.40
2018-03-30T12:12:27.120Z,42.10
2018-03-30T12:17:30.480Z,40.70
2018-03-30T12:22:33.408Z,40.60
2018-03-30T12:27:36.003Z,40.60
2018-03-30T12:32:38.775Z,40.00
2018-03-30T12:37:41.402Z,39.80
2018-03-30T12:42:43.984Z,38.60
2018-03-30T12:47:49.397Z,37.30
2018-03-30T12:52:52.463Z,38.30
2018-03-30T12:57:57.540Z,39.20
2018-03-30T13:03:00.413Z,36.30
2018-03-30T13:08:03.520Z,35.50
2018-03-30T13:13:08.608Z,34.70
2018-03-30T13:18:11.253Z,32.70
2018-03-30T13:23:14.606Z,30.80
2018-03-30T13:28:17.189Z,30.80
2018-03-30T13:33:20.045Z,30.60
2018-03-30T13:38:23.088Z,30.40
2018-03-30T13:43:32.388Z,30.20
2018-03-30T13:48:34.961Z,28.60
2018-03-30T13:53:39.282Z,29.20
2018-03-30T13:58:45.309Z,28.50
2018-03-30T14:03:53.266Z,28.90
2018-03-30T14:08:57.424Z,29.70
2018-03-30T14:14:00.019Z,29.60
2018-03-30T14:19:06.520Z,30.00
2018-03-30T14:24:10.626Z,29.80
2018-03-30T14:29:23.445Z,29.70
2018-03-30T14:34:42.229Z,29.70
2018-03-30T14:39:50.506Z,30.20
2018-03-30T14:56:00.109Z,31.50
2018-03-30T15:01:10.910Z,32.50
2018-03-30T15:06:18.133Z,32.70
2018-03-30T15:11:34.242Z,33.30
2018-03-30T15:16:42.776Z,33.20
2018-03-30T15:27:23.417Z,33.10
2018-03-30T15:38:14.238Z,35.90
2018-03-30T15:43:16.828Z,36.80
2018-03-30T15:48:19.411Z,37.20
2018-03-30T15:53:21.511Z,36.50
2018-03-30T15:58:26.725Z,37.00
2018-03-30T16:03:29.314Z,38.20
2018-03-30T16:08:32.007Z,39.30
2018-03-30T16:13:35.794Z,41.20
2018-03-30T16:18:50.402Z,41.20
2018-03-30T16:23:52.625Z,42.90
2018-03-30T16:28:54.729Z,43.90
2018-03-30T16:33:57.208Z,45.40
2018-03-30T16:38:59.301Z,48.10
2018-03-30T16:44:01.381Z,50.50
2018-03-30T16:49:03.586Z,51.00
2018-03-30T16:54:06.355Z,51.10
2018-03-30T16:59:09.197Z,52.60
2018-03-30T17:04:12.320Z,52.50
2018-03-30T17:09:15.174Z,53.40
2018-03-30T17:14:18.049Z,57.40
2018-03-30T17:19:20.137Z,57.30
2018-03-30T17:24:22.212Z,59.00
2018-03-30T17:29:25.446Z,60.10
2018-03-30T17:34:27.919Z,60.40
2018-03-30T17:39:30.016Z,61.20
2018-03-30T17:44:32.128Z,63.50
2018-03-30T17:49:34.981Z,64.60
2018-03-30T17:54:37.075Z,64.60
2018-03-30T17:59:39.301Z,66.20
2018-03-30T18:04:42.153Z,69.60
2018-03-30T18:09:44.234Z,69.50
2018-03-30T18:14:46.907Z,70.90
2018-03-30T18:19:48.994Z,74.30
2018-03-30T18:24:51.711Z,75.40
2018-03-30T18:29:53.808Z,76.40
2018-03-30T18:34:58.940Z,78.00
2018-03-30T18:40:01.054Z,79.40
2018-03-30T18:45:03.140Z,79.50
2018-03-30T18:50:05.716Z,80.50
2018-03-30T18:55:07.803Z,79.40
2018-03-30T19:00:09.884Z,81.20
2018-03-30T19:05:12.067Z,81.40
2018-03-30T19:10:14.950Z,80.80
2018-03-30T19:15:17.058Z,80.60
2018-03-30T19:20:19.957Z,81.10
2018-03-30T19:25:23.648Z,81.00
2018-03-30T19:30:28.317Z,81.00
2018-03-30T19:35:30.397Z,81.50
2018-03-30T19:40:33.250Z,82.40
2018-03-30T19:45:37.087Z,82.50
2018-03-30T19:50:39.237Z,81.90
2018-03-30T19:55:42.098Z,81.10
2018-03-30T20:00:44.199Z,81.10
2018-03-30T20:05:47.049Z,82.50
2018-03-30T20:10:49.390Z,82.50
2018-03-30T20:15:51.502Z,83.20
2018-03-30T20:20:54.357Z,83.90
2018-03-30T20:25:56.591Z,83.90
2018-03-30T20:31:00.121Z,82.00
2018-03-30T20:36:02.972Z,81.20
2018-03-30T20:41:05.496Z,81.20
2018-03-30T20:46:07.609Z,81.50
2018-03-30T20:51:10.460Z,82.00
2018-03-30T20:56:12.563Z,82.00
2018-03-30T21:01:14.668Z,79.10
2018-03-30T21:06:16.765Z,77.70
2018-03-30T21:11:18.845Z,78.00
2018-03-30T21:16:20.921Z,78.10
2018-03-30T21:21:23.008Z,77.80
2018-03-30T21:26:25.412Z,80.40
2018-03-30T21:31:28.280Z,78.70
2018-03-30T21:36:30.419Z,78.70
2018-03-30T21:41:33.286Z,79.00
2018-03-30T21:46:35.514Z,78.90
2018-03-30T21:51:37.908Z,79.90
2018-03-30T21:56:40.050Z,78.50
2018-03-30T22:01:42.899Z,78.30
2018-03-30T22:06:45.499Z,78.00
2018-03-30T22:11:48.373Z,75.80
2018-03-30T22:16:50.880Z,78.40
2018-03-30T22:21:52.978Z,76.60
2018-03-30T22:26:55.844Z,75.50
2018-03-30T22:31:58.194Z,75.50
2018-03-30T22:37:00.296Z,77.10
2018-03-30T22:42:02.393Z,78.20
2018-03-30T22:47:04.492Z,76.60
2018-03-30T22:52:06.582Z,74.30
2018-03-30T22:57:08.718Z,75.50
2018-03-30T23:02:12.434Z,74.30
2018-03-30T23:07:15.297Z,75.60
2018-03-30T23:12:17.776Z,75.60
2018-03-30T23:17:19.851Z,75.60
2018-03-30T23:22:21.978Z,75.40
2018-03-30T23:27:24.433Z,75.00
2018-03-30T23:32:28.415Z,75.50
2018-03-30T23:37:34.059Z,75.10
2018-03-30T23:42:36.152Z,75.50
2018-03-30T23:47:38.257Z,77.40
2018-03-30T23:52:41.187Z,75.20
2018-03-30T23:57:44.057Z,75.80
